sensor_id;sensor_type;location;lat;lon;timestamp;P1;durP1;ratioP1;P2;durP2;ratioP2
21270;SDS011;10795;50.796;3.860;2023-06-14T04:05:39;8.30;;;5.20;;
21270;SDS011;10795;50.796;3.860;2023-06-14T06:08:02;7.82;;;5.40;;
21270;SDS011;10795;50.796;3.860;2023-06-14T06:14:09;6.00;;;4.55;;
21270;SDS011;10795;50.796;3.860;2023-06-14T06:20:18;5.70;;;4.47;;
21270;SDS011;10795;50.796;3.860;2023-06-14T06:23:14;7.07;;;4.72;;
21270;SDS011;10795;50.796;3.860;2023-06-14T06:26:07;7.18;;;6.47;;
21270;SDS011;10795;50.796;3.860;2023-06-14T06:28:52;6.38;;;4.50;;
21270;SDS011;10795;50.796;3.860;2023-06-14T06:31:30;6.47;;;4.93;;
21270;SDS011;10795;50.796;3.860;2023-06-14T06:34:08;6.57;;;5.47;;
21270;SDS011;10795;50.796;3.860;2023-06-14T06:36:34;5.75;;;4.72;;
21270;SDS011;10795;50.796;3.860;2023-06-14T06:39:00;6.93;;;4.70;;
21270;SDS011;10795;50.796;3.860;2023-06-14T06:41:38;6.38;;;5.47;;
21270;SDS011;10795;50.796;3.860;2023-06-14T06:44:05;6.25;;;4.68;;
21270;SDS011;10795;50.796;3.860;2023-06-14T06:46:35;7.07;;;6.38;;
21270;SDS011;10795;50.796;3.860;2023-06-14T06:49:09;6.10;;;5.38;;
21270;SDS011;10795;50.796;3.860;2023-06-14T06:51:43;5.18;;;4.57;;
21270;SDS011;10795;50.796;3.860;2023-06-14T06:54:34;8.23;;;4.85;;
21270;SDS011;10795;50.796;3.860;2023-06-14T06:57:00;5.32;;;4.82;;
21270;SDS011;10795;50.796;3.860;2023-06-14T06:59:29;7.40;;;5.93;;
21270;SDS011;10795;50.796;3.860;2023-06-14T07:02:10;6.95;;;5.03;;
21270;SDS011;10795;50.796;3.860;2023-06-14T07:04:36;6.63;;;4.57;;
21270;SDS011;10795;50.796;3.860;2023-06-14T07:07:04;7.60;;;4.10;;
21270;SDS011;10795;50.796;3.860;2023-06-14T07:09:46;5.93;;;5.13;;
21270;SDS011;10795;50.796;3.860;2023-06-14T07:12:14;8.75;;;5.43;;
21270;SDS011;10795;50.796;3.860;2023-06-14T07:14:48;5.22;;;4.72;;
21270;SDS011;10795;50.796;3.860;2023-06-14T07:17:26;11.82;;;6.35;;
21270;SDS011;10795;50.796;3.860;2023-06-14T07:20:06;6.68;;;4.82;;
21270;SDS011;10795;50.796;3.860;2023-06-14T07:22:42;9.13;;;6.93;;
21270;SDS011;10795;50.796;3.860;2023-06-14T07:25:11;12.38;;;6.28;;
21270;SDS011;10795;50.796;3.860;2023-06-14T07:27:43;5.97;;;4.70;;
21270;SDS011;10795;50.796;3.860;2023-06-14T07:30:21;7.87;;;6.77;;
21270;SDS011;10795;50.796;3.860;2023-06-14T07:33:11;8.48;;;6.00;;
21270;SDS011;10795;50.796;3.860;2023-06-14T07:35:42;4.93;;;4.30;;
21270;SDS011;10795;50.796;3.860;2023-06-14T07:40:42;6.95;;;5.18;;
21270;SDS011;10795;50.796;3.860;2023-06-14T07:43:11;11.13;;;6.10;;
21270;SDS011;10795;50.796;3.860;2023-06-14T07:45:56;6.13;;;4.07;;
21270;SDS011;10795;50.796;3.860;2023-06-14T07:48:36;4.40;;;4.00;;
21270;SDS011;10795;50.796;3.860;2023-06-14T07:51:33;4.20;;;3.80;;
21270;SDS011;10795;50.796;3.860;2023-06-14T07:54:01;4.63;;;4.23;;
21270;SDS011;10795;50.796;3.860;2023-06-14T07:59:51;4.60;;;3.92;;
21270;SDS011;10795;50.796;3.860;2023-06-14T08:05:56;9.20;;;4.22;;
21270;SDS011;10795;50.796;3.860;2023-06-14T08:08:53;5.82;;;4.85;;
21270;SDS011;10795;50.796;3.860;2023-06-14T08:11:21;4.07;;;3.60;;
21270;SDS011;10795;50.796;3.860;2023-06-14T08:17:07;5.32;;;4.82;;
21270;SDS011;10795;50.796;3.860;2023-06-14T08:19:38;4.80;;;4.40;;
21270;SDS011;10795;50.796;3.860;2023-06-14T08:22:58;8.10;;;5.07;;
21270;SDS011;10795;50.796;3.860;2023-06-14T08:28:55;4.90;;;4.15;;
21270;SDS011;10795;50.796;3.860;2023-06-14T08:31:24;6.45;;;4.75;;
21270;SDS011;10795;50.796;3.860;2023-06-14T08:33:52;8.38;;;5.40;;
21270;SDS011;10795;50.796;3.860;2023-06-14T08:36:28;5.93;;;4.25;;
21270;SDS011;10795;50.796;3.860;2023-06-14T08:38:54;4.82;;;3.92;;
21270;SDS011;10795;50.796;3.860;2023-06-14T08:41:23;5.57;;;4.90;;
21270;SDS011;10795;50.796;3.860;2023-06-14T08:43:52;5.82;;;4.25;;
21270;SDS011;10795;50.796;3.860;2023-06-14T08:46:33;3.88;;;3.58;;
21270;SDS011;10795;50.796;3.860;2023-06-14T08:48:59;4.88;;;3.97;;
21270;SDS011;10795;50.796;3.860;2023-06-14T08:51:30;3.90;;;3.50;;
21270;SDS011;10795;50.796;3.860;2023-06-14T08:54:02;4.25;;;3.83;;
21270;SDS011;10795;50.796;3.860;2023-06-14T08:56:48;5.25;;;3.88;;
21270;SDS011;10795;50.796;3.860;2023-06-14T08:59:16;8.23;;;4.38;;
21270;SDS011;10795;50.796;3.860;2023-06-14T09:01:48;3.75;;;3.45;;
21270;SDS011;10795;50.796;3.860;2023-06-14T09:04:14;5.57;;;3.63;;
21270;SDS011;10795;50.796;3.860;2023-06-14T09:06:46;3.50;;;3.20;;
21270;SDS011;10795;50.796;3.860;2023-06-14T09:11:52;3.38;;;3.17;;
21270;SDS011;10795;50.796;3.860;2023-06-14T09:15:06;4.25;;;3.85;;
21270;SDS011;10795;50.796;3.860;2023-06-14T09:17:36;4.53;;;3.15;;
21270;SDS011;10795;50.796;3.860;2023-06-14T09:20:11;3.88;;;3.55;;
21270;SDS011;10795;50.796;3.860;2023-06-14T09:22:44;3.30;;;3.10;;
21270;SDS011;10795;50.796;3.860;2023-06-14T09:25:21;3.80;;;3.50;;
21270;SDS011;10795;50.796;3.860;2023-06-14T09:27:48;3.92;;;3.28;;
21270;SDS011;10795;50.796;3.860;2023-06-14T09:30:16;3.65;;;3.20;;
21270;SDS011;10795;50.796;3.860;2023-06-14T09:32:46;3.63;;;3.22;;
21270;SDS011;10795;50.796;3.860;2023-06-14T09:35:12;5.05;;;3.35;;
21270;SDS011;10795;50.796;3.860;2023-06-14T09:37:43;4.32;;;3.85;;
21270;SDS011;10795;50.796;3.860;2023-06-14T09:40:13;3.92;;;2.95;;
21270;SDS011;10795;50.796;3.860;2023-06-14T09:42:51;6.55;;;4.80;;
21270;SDS011;10795;50.796;3.860;2023-06-14T09:45:22;5.13;;;4.13;;
21270;SDS011;10795;50.796;3.860;2023-06-14T09:47:59;4.80;;;4.13;;
21270;SDS011;10795;50.796;3.860;2023-06-14T09:50:26;4.20;;;3.80;;
21270;SDS011;10795;50.796;3.860;2023-06-14T09:52:52;6.03;;;3.85;;
21270;SDS011;10795;50.796;3.860;2023-06-14T09:55:24;4.43;;;3.90;;
21270;SDS011;10795;50.796;3.860;2023-06-14T09:58:08;3.70;;;3.40;;
21270;SDS011;10795;50.796;3.860;2023-06-14T10:00:40;7.05;;;4.22;;
21270;SDS011;10795;50.796;3.860;2023-06-14T10:03:13;5.95;;;3.78;;
21270;SDS011;10795;50.796;3.860;2023-06-14T10:05:45;4.55;;;4.00;;
21270;SDS011;10795;50.796;3.860;2023-06-14T10:08:17;4.53;;;3.67;;
21270;SDS011;10795;50.796;3.860;2023-06-14T10:10:47;5.13;;;3.83;;
21270;SDS011;10795;50.796;3.860;2023-06-14T10:13:13;4.15;;;3.78;;
21270;SDS011;10795;50.796;3.860;2023-06-14T10:21:08;3.78;;;3.47;;
21270;SDS011;10795;50.796;3.860;2023-06-14T10:23:46;4.45;;;4.05;;
21270;SDS011;10795;50.796;3.860;2023-06-14T10:26:18;4.57;;;4.17;;
21270;SDS011;10795;50.796;3.860;2023-06-14T10:29:08;5.10;;;4.05;;
21270;SDS011;10795;50.796;3.860;2023-06-14T10:31:46;4.85;;;4.45;;
21270;SDS011;10795;50.796;3.860;2023-06-14T10:34:23;6.53;;;4.20;;
21270;SDS011;10795;50.796;3.860;2023-06-14T10:37:12;3.95;;;3.55;;
21270;SDS011;10795;50.796;3.860;2023-06-14T10:39:43;4.57;;;4.05;;
21270;SDS011;10795;50.796;3.860;2023-06-14T10:42:13;3.50;;;3.20;;
21270;SDS011;10795;50.796;3.860;2023-06-14T10:47:09;4.65;;;4.25;;
21270;SDS011;10795;50.796;3.860;2023-06-14T10:49:45;4.22;;;3.83;;
21270;SDS011;10795;50.796;3.860;2023-06-14T10:52:17;4.68;;;4.28;;
21270;SDS011;10795;50.796;3.860;2023-06-14T10:57:44;6.78;;;4.30;;
21270;SDS011;10795;50.796;3.860;2023-06-14T11:00:27;4.20;;;3.90;;
21270;SDS011;10795;50.796;3.860;2023-06-14T11:05:51;4.95;;;3.50;;
21270;SDS011;10795;50.796;3.860;2023-06-14T11:11:08;4.85;;;4.45;;
21270;SDS011;10795;50.796;3.860;2023-06-14T11:13:44;6.70;;;4.30;;
21270;SDS011;10795;50.796;3.860;2023-06-14T11:16:12;4.18;;;3.88;;
21270;SDS011;10795;50.796;3.860;2023-06-14T11:18:45;4.40;;;4.00;;
21270;SDS011;10795;50.796;3.860;2023-06-14T11:21:11;4.28;;;3.88;;
21270;SDS011;10795;50.796;3.860;2023-06-14T11:23:40;4.28;;;3.88;;
21270;SDS011;10795;50.796;3.860;2023-06-14T11:26:06;5.40;;;4.45;;
21270;SDS011;10795;50.796;3.860;2023-06-14T11:28:38;4.25;;;3.65;;
21270;SDS011;10795;50.796;3.860;2023-06-14T11:31:05;4.32;;;3.92;;
21270;SDS011;10795;50.796;3.860;2023-06-14T11:33:31;4.70;;;4.30;;
21270;SDS011;10795;50.796;3.860;2023-06-14T11:35:58;3.95;;;3.30;;
21270;SDS011;10795;50.796;3.860;2023-06-14T11:38:26;3.75;;;3.38;;
21270;SDS011;10795;50.796;3.860;2023-06-14T11:40:58;4.57;;;3.90;;
21270;SDS011;10795;50.796;3.860;2023-06-14T11:43:27;4.32;;;3.88;;
21270;SDS011;10795;50.796;3.860;2023-06-14T11:45:56;4.40;;;3.88;;
21270;SDS011;10795;50.796;3.860;2023-06-14T11:53:32;5.18;;;4.50;;
21270;SDS011;10795;50.796;3.860;2023-06-14T11:55:58;6.57;;;4.63;;
21270;SDS011;10795;50.796;3.860;2023-06-14T11:58:25;4.55;;;4.15;;
21270;SDS011;10795;50.796;3.860;2023-06-14T12:00:58;3.60;;;3.10;;
21270;SDS011;10795;50.796;3.860;2023-06-14T12:03:24;3.90;;;3.60;;
21270;SDS011;10795;50.796;3.860;2023-06-14T12:06:07;5.55;;;4.07;;
21270;SDS011;10795;50.796;3.860;2023-06-14T12:08:37;6.03;;;3.70;;
21270;SDS011;10795;50.796;3.860;2023-06-14T12:11:11;4.57;;;4.18;;
21270;SDS011;10795;50.796;3.860;2023-06-14T12:13:42;6.18;;;4.20;;
21270;SDS011;10795;50.796;3.860;2023-06-14T12:16:11;4.20;;;3.80;;
21270;SDS011;10795;50.796;3.860;2023-06-14T12:18:40;4.80;;;3.53;;
21270;SDS011;10795;50.796;3.860;2023-06-14T12:21:16;3.88;;;3.33;;
21270;SDS011;10795;50.796;3.860;2023-06-14T12:23:45;5.10;;;3.85;;
21270;SDS011;10795;50.796;3.860;2023-06-14T12:26:15;5.63;;;4.30;;
21270;SDS011;10795;50.796;3.860;2023-06-14T12:28:45;4.25;;;3.65;;
21270;SDS011;10795;50.796;3.860;2023-06-14T12:31:12;4.28;;;3.90;;
21270;SDS011;10795;50.796;3.860;2023-06-14T12:33:42;5.30;;;3.75;;
21270;SDS011;10795;50.796;3.860;2023-06-14T12:36:19;5.88;;;3.72;;
21270;SDS011;10795;50.796;3.860;2023-06-14T12:38:48;5.45;;;3.72;;
21270;SDS011;10795;50.796;3.860;2023-06-14T12:41:27;7.65;;;3.75;;
21270;SDS011;10795;50.796;3.860;2023-06-14T12:43:58;4.85;;;4.32;;
21270;SDS011;10795;50.796;3.860;2023-06-14T12:46:27;4.50;;;4.10;;
21270;SDS011;10795;50.796;3.860;2023-06-14T12:49:02;3.90;;;3.60;;
21270;SDS011;10795;50.796;3.860;2023-06-14T12:51:28;4.53;;;3.70;;
21270;SDS011;10795;50.796;3.860;2023-06-14T12:54:06;7.15;;;3.70;;
21270;SDS011;10795;50.796;3.860;2023-06-14T12:56:47;6.97;;;3.65;;
21270;SDS011;10795;50.796;3.860;2023-06-14T12:59:28;5.38;;;3.40;;
21270;SDS011;10795;50.796;3.860;2023-06-14T13:02:11;3.30;;;3.00;;
21270;SDS011;10795;50.796;3.860;2023-06-14T13:04:51;3.85;;;3.50;;
21270;SDS011;10795;50.796;3.860;2023-06-14T13:07:17;3.90;;;3.22;;
21270;SDS011;10795;50.796;3.860;2023-06-14T13:09:46;7.90;;;4.57;;
21270;SDS011;10795;50.796;3.860;2023-06-14T13:12:12;4.03;;;3.42;;
21270;SDS011;10795;50.796;3.860;2023-06-14T13:14:38;6.07;;;3.72;;
21270;SDS011;10795;50.796;3.860;2023-06-14T13:17:08;4.03;;;3.53;;
21270;SDS011;10795;50.796;3.860;2023-06-14T13:19:36;4.88;;;4.15;;
21270;SDS011;10795;50.796;3.860;2023-06-14T13:22:07;4.10;;;3.67;;
21270;SDS011;10795;50.796;3.860;2023-06-14T13:24:34;5.60;;;3.90;;
21270;SDS011;10795;50.796;3.860;2023-06-14T13:27:00;6.63;;;3.63;;
21270;SDS011;10795;50.796;3.860;2023-06-14T13:29:30;5.80;;;3.47;;
21270;SDS011;10795;50.796;3.860;2023-06-14T13:31:56;4.63;;;3.80;;
21270;SDS011;10795;50.796;3.860;2023-06-14T13:34:29;4.28;;;3.80;;
21270;SDS011;10795;50.796;3.860;2023-06-14T13:36:58;6.88;;;4.00;;
21270;SDS011;10795;50.796;3.860;2023-06-14T13:39:37;4.13;;;3.70;;
21270;SDS011;10795;50.796;3.860;2023-06-14T13:42:03;4.10;;;3.70;;
21270;SDS011;10795;50.796;3.860;2023-06-14T13:44:37;9.48;;;3.97;;
21270;SDS011;10795;50.796;3.860;2023-06-14T13:47:03;5.32;;;3.00;;
21270;SDS011;10795;50.796;3.860;2023-06-14T13:49:30;3.63;;;3.30;;
21270;SDS011;10795;50.796;3.860;2023-06-14T13:51:56;4.88;;;3.28;;
21270;SDS011;10795;50.796;3.860;2023-06-14T13:54:22;4.38;;;3.53;;
21270;SDS011;10795;50.796;3.860;2023-06-14T13:56:48;5.32;;;3.80;;
21270;SDS011;10795;50.796;3.860;2023-06-14T13:59:23;4.80;;;3.67;;
21270;SDS011;10795;50.796;3.860;2023-06-14T14:01:49;3.60;;;3.30;;
21270;SDS011;10795;50.796;3.860;2023-06-14T14:04:15;4.70;;;3.53;;
21270;SDS011;10795;50.796;3.860;2023-06-14T14:06:41;6.00;;;3.53;;
21270;SDS011;10795;50.796;3.860;2023-06-14T14:09:07;4.22;;;3.53;;
21270;SDS011;10795;50.796;3.860;2023-06-14T14:11:34;4.70;;;3.45;;
21270;SDS011;10795;50.796;3.860;2023-06-14T14:14:00;4.18;;;3.25;;
21270;SDS011;10795;50.796;3.860;2023-06-14T14:16:30;7.45;;;3.95;;
21270;SDS011;10795;50.796;3.860;2023-06-14T14:18:58;6.82;;;3.72;;
21270;SDS011;10795;50.796;3.860;2023-06-14T14:21:24;4.15;;;3.75;;
21270;SDS011;10795;50.796;3.860;2023-06-14T14:23:50;4.97;;;3.53;;
21270;SDS011;10795;50.796;3.860;2023-06-14T14:26:16;6.35;;;3.63;;
21270;SDS011;10795;50.796;3.860;2023-06-14T14:28:42;3.30;;;2.97;;
21270;SDS011;10795;50.796;3.860;2023-06-14T14:33:37;4.47;;;3.65;;
21270;SDS011;10795;50.796;3.860;2023-06-14T14:36:05;3.20;;;2.88;;
21270;SDS011;10795;50.796;3.860;2023-06-14T14:38:32;4.78;;;3.40;;
21270;SDS011;10795;50.796;3.860;2023-06-14T14:40:59;3.92;;;3.00;;
21270;SDS011;10795;50.796;3.860;2023-06-14T14:43:25;3.20;;;2.90;;
21270;SDS011;10795;50.796;3.860;2023-06-14T14:45:51;7.32;;;3.47;;
21270;SDS011;10795;50.796;3.860;2023-06-14T14:48:20;3.90;;;3.03;;
21270;SDS011;10795;50.796;3.860;2023-06-14T14:50:46;3.83;;;3.38;;
21270;SDS011;10795;50.796;3.860;2023-06-14T14:53:11;4.35;;;3.10;;
21270;SDS011;10795;50.796;3.860;2023-06-14T14:55:38;5.03;;;3.60;;
21270;SDS011;10795;50.796;3.860;2023-06-14T14:58:06;3.70;;;3.35;;
21270;SDS011;10795;50.796;3.860;2023-06-14T15:00:33;5.68;;;3.22;;
21270;SDS011;10795;50.796;3.860;2023-06-14T15:02:59;3.88;;;2.85;;
21270;SDS011;10795;50.796;3.860;2023-06-14T15:05:25;3.70;;;3.15;;
21270;SDS011;10795;50.796;3.860;2023-06-14T15:07:52;3.67;;;2.80;;
21270;SDS011;10795;50.796;3.860;2023-06-14T15:10:18;3.92;;;2.83;;
21270;SDS011;10795;50.796;3.860;2023-06-14T15:12:44;3.88;;;3.15;;
21270;SDS011;10795;50.796;3.860;2023-06-14T15:15:10;3.90;;;2.55;;
21270;SDS011;10795;50.796;3.860;2023-06-14T15:17:36;4.53;;;3.30;;
21270;SDS011;10795;50.796;3.860;2023-06-14T15:20:02;3.08;;;2.80;;
21270;SDS011;10795;50.796;3.860;2023-06-14T15:22:30;5.30;;;3.28;;
21270;SDS011;10795;50.796;3.860;2023-06-14T15:24:59;3.03;;;2.73;;
21270;SDS011;10795;50.796;3.860;2023-06-14T15:27:27;4.32;;;2.92;;
21270;SDS011;10795;50.796;3.860;2023-06-14T15:29:53;2.85;;;2.50;;
21270;SDS011;10795;50.796;3.860;2023-06-14T15:32:19;3.53;;;2.80;;
21270;SDS011;10795;50.796;3.860;2023-06-14T15:34:44;3.85;;;2.78;;
21270;SDS011;10795;50.796;3.860;2023-06-14T15:37:10;4.68;;;3.08;;
21270;SDS011;10795;50.796;3.860;2023-06-14T15:39:36;2.50;;;2.25;;
21270;SDS011;10795;50.796;3.860;2023-06-14T15:42:03;5.63;;;2.60;;
21270;SDS011;10795;50.796;3.860;2023-06-14T15:44:29;2.88;;;2.58;;
21270;SDS011;10795;50.796;3.860;2023-06-14T15:46:55;5.18;;;2.53;;
21270;SDS011;10795;50.796;3.860;2023-06-14T15:49:20;2.92;;;2.50;;
21270;SDS011;10795;50.796;3.860;2023-06-14T15:51:46;5.78;;;2.33;;
21270;SDS011;10795;50.796;3.860;2023-06-14T15:54:14;3.42;;;2.20;;
21270;SDS011;10795;50.796;3.860;2023-06-14T15:56:40;3.40;;;2.60;;
21270;SDS011;10795;50.796;3.860;2023-06-14T15:59:06;2.70;;;2.10;;
21270;SDS011;10795;50.796;3.860;2023-06-14T16:01:32;4.75;;;2.30;;
21270;SDS011;10795;50.796;3.860;2023-06-14T16:03:58;3.85;;;2.33;;
21270;SDS011;10795;50.796;3.860;2023-06-14T16:06:24;2.45;;;2.17;;
21270;SDS011;10795;50.796;3.860;2023-06-14T16:08:50;8.15;;;3.15;;
21270;SDS011;10795;50.796;3.860;2023-06-14T16:11:17;5.20;;;2.00;;
21270;SDS011;10795;50.796;3.860;2023-06-14T16:13:45;3.10;;;1.40;;
21270;SDS011;10795;50.796;3.860;2023-06-14T16:16:11;4.22;;;1.33;;
21270;SDS011;10795;50.796;3.860;2023-06-14T16:18:37;2.80;;;1.77;;
21270;SDS011;10795;50.796;3.860;2023-06-14T16:21:08;3.67;;;1.38;;
21270;SDS011;10795;50.796;3.860;2023-06-14T16:23:35;2.20;;;1.70;;
21270;SDS011;10795;50.796;3.860;2023-06-14T16:26:01;1.65;;;1.48;;
21270;SDS011;10795;50.796;3.860;2023-06-14T16:28:27;1.60;;;1.50;;
21270;SDS011;10795;50.796;3.860;2023-06-14T16:30:55;1.70;;;1.50;;
21270;SDS011;10795;50.796;3.860;2023-06-14T16:33:21;2.60;;;1.48;;
21270;SDS011;10795;50.796;3.860;2023-06-14T16:35:47;2.83;;;1.52;;
21270;SDS011;10795;50.796;3.860;2023-06-14T16:38:13;2.50;;;1.33;;
21270;SDS011;10795;50.796;3.860;2023-06-14T16:40:39;4.20;;;1.50;;
21270;SDS011;10795;50.796;3.860;2023-06-14T16:43:05;1.48;;;1.20;;
21270;SDS011;10795;50.796;3.860;2023-06-14T16:45:34;1.27;;;1.17;;
21270;SDS011;10795;50.796;3.860;2023-06-14T16:48:00;1.98;;;1.20;;
21270;SDS011;10795;50.796;3.860;2023-06-14T16:50:29;4.63;;;1.50;;
21270;SDS011;10795;50.796;3.860;2023-06-14T16:52:57;1.67;;;1.30;;
21270;SDS011;10795;50.796;3.860;2023-06-14T16:55:23;3.35;;;1.05;;
21270;SDS011;10795;50.796;3.860;2023-06-14T16:57:49;1.30;;;1.20;;
21270;SDS011;10795;50.796;3.860;2023-06-14T17:00:16;2.38;;;1.33;;
21270;SDS011;10795;50.796;3.860;2023-06-14T17:02:42;2.17;;;1.30;;
21270;SDS011;10795;50.796;3.860;2023-06-14T17:05:11;2.33;;;1.23;;
21270;SDS011;10795;50.796;3.860;2023-06-14T17:07:37;2.17;;;1.50;;
21270;SDS011;10795;50.796;3.860;2023-06-14T17:10:06;3.08;;;1.38;;
21270;SDS011;10795;50.796;3.860;2023-06-14T17:12:32;1.65;;;1.55;;
21270;SDS011;10795;50.796;3.860;2023-06-14T17:14:58;3.35;;;1.42;;
21270;SDS011;10795;50.796;3.860;2023-06-14T17:17:24;2.38;;;1.45;;
21270;SDS011;10795;50.796;3.860;2023-06-14T17:19:50;3.15;;;1.40;;
21270;SDS011;10795;50.796;3.860;2023-06-14T17:22:17;1.50;;;1.40;;
21270;SDS011;10795;50.796;3.860;2023-06-14T17:24:43;1.50;;;1.38;;
21270;SDS011;10795;50.796;3.860;2023-06-14T17:27:09;2.28;;;1.35;;
21270;SDS011;10795;50.796;3.860;2023-06-14T17:29:36;1.60;;;1.50;;
21270;SDS011;10795;50.796;3.860;2023-06-14T17:32:02;1.90;;;1.40;;
21270;SDS011;10795;50.796;3.860;2023-06-14T17:34:29;3.55;;;1.50;;
21270;SDS011;10795;50.796;3.860;2023-06-14T17:36:55;3.95;;;1.80;;
21270;SDS011;10795;50.796;3.860;2023-06-14T17:39:21;3.80;;;1.90;;
21270;SDS011;10795;50.796;3.860;2023-06-14T17:41:47;2.65;;;1.55;;
21270;SDS011;10795;50.796;3.860;2023-06-14T17:44:15;5.43;;;1.75;;
21270;SDS011;10795;50.796;3.860;2023-06-14T17:46:41;4.22;;;1.70;;
21270;SDS011;10795;50.796;3.860;2023-06-14T17:49:10;1.35;;;1.25;;
21270;SDS011;10795;50.796;3.860;2023-06-14T17:51:39;3.30;;;1.88;;
21270;SDS011;10795;50.796;3.860;2023-06-14T17:54:08;1.20;;;1.10;;
21270;SDS011;10795;50.796;3.860;2023-06-14T17:56:37;2.67;;;1.60;;
21270;SDS011;10795;50.796;3.860;2023-06-14T17:59:05;3.00;;;1.20;;
21270;SDS011;10795;50.796;3.860;2023-06-14T18:01:33;1.35;;;1.13;;
21270;SDS011;10795;50.796;3.860;2023-06-14T18:03:59;2.00;;;1.50;;
21270;SDS011;10795;50.796;3.860;2023-06-14T18:06:28;1.80;;;1.30;;
21270;SDS011;10795;50.796;3.860;2023-06-14T18:08:57;2.03;;;1.30;;
21270;SDS011;10795;50.796;3.860;2023-06-14T18:11:25;1.95;;;1.17;;
21270;SDS011;10795;50.796;3.860;2023-06-14T18:13:59;3.00;;;1.58;;
21270;SDS011;10795;50.796;3.860;2023-06-14T18:16:25;1.27;;;1.13;;
21270;SDS011;10795;50.796;3.860;2023-06-14T18:18:54;2.50;;;1.50;;
21270;SDS011;10795;50.796;3.860;2023-06-14T18:21:21;3.10;;;1.40;;
21270;SDS011;10795;50.796;3.860;2023-06-14T18:23:47;1.48;;;1.30;;
21270;SDS011;10795;50.796;3.860;2023-06-14T18:26:23;2.00;;;1.48;;
21270;SDS011;10795;50.796;3.860;2023-06-14T18:28:57;3.47;;;1.40;;
21270;SDS011;10795;50.796;3.860;2023-06-14T18:31:25;1.30;;;1.20;;
21270;SDS011;10795;50.796;3.860;2023-06-14T18:33:51;1.60;;;1.27;;
21270;SDS011;10795;50.796;3.860;2023-06-14T18:36:17;2.20;;;1.38;;
21270;SDS011;10795;50.796;3.860;2023-06-14T18:38:44;1.92;;;1.40;;
21270;SDS011;10795;50.796;3.860;2023-06-14T18:41:14;4.88;;;1.25;;
21270;SDS011;10795;50.796;3.860;2023-06-14T18:43:43;1.35;;;1.10;;
21270;SDS011;10795;50.796;3.860;2023-06-14T18:46:13;3.35;;;1.20;;
21270;SDS011;10795;50.796;3.860;2023-06-14T18:48:44;3.20;;;1.40;;
21270;SDS011;10795;50.796;3.860;2023-06-14T18:51:16;3.58;;;1.33;;
21270;SDS011;10795;50.796;3.860;2023-06-14T18:53:44;1.85;;;1.27;;
21270;SDS011;10795;50.796;3.860;2023-06-14T18:56:13;2.08;;;1.45;;
21270;SDS011;10795;50.796;3.860;2023-06-14T18:58:42;1.85;;;1.30;;
21270;SDS011;10795;50.796;3.860;2023-06-14T19:01:08;1.30;;;1.20;;
21270;SDS011;10795;50.796;3.860;2023-06-14T19:03:34;3.00;;;1.33;;
21270;SDS011;10795;50.796;3.860;2023-06-14T19:06:03;3.10;;;1.55;;
21270;SDS011;10795;50.796;3.860;2023-06-14T19:08:29;3.10;;;1.63;;
21270;SDS011;10795;50.796;3.860;2023-06-14T19:10:55;3.17;;;1.25;;
21270;SDS011;10795;50.796;3.860;2023-06-14T19:13:21;1.63;;;1.10;;
21270;SDS011;10795;50.796;3.860;2023-06-14T19:15:50;2.13;;;1.42;;
21270;SDS011;10795;50.796;3.860;2023-06-14T19:18:20;4.15;;;1.23;;
21270;SDS011;10795;50.796;3.860;2023-06-14T19:20:48;3.55;;;1.27;;
21270;SDS011;10795;50.796;3.860;2023-06-14T19:23:19;0.98;;;0.98;;
21270;SDS011;10795;50.796;3.860;2023-06-14T19:25:47;1.45;;;1.33;;
21270;SDS011;10795;50.796;3.860;2023-06-14T19:28:13;1.67;;;1.10;;
21270;SDS011;10795;50.796;3.860;2023-06-14T19:30:40;3.80;;;1.48;;
21270;SDS011;10795;50.796;3.860;2023-06-14T19:33:09;3.83;;;1.30;;
21270;SDS011;10795;50.796;3.860;2023-06-14T19:35:37;3.38;;;1.30;;
21270;SDS011;10795;50.796;3.860;2023-06-14T19:38:06;1.75;;;1.42;;
21270;SDS011;10795;50.796;3.860;2023-06-14T19:40:32;2.60;;;1.27;;
21270;SDS011;10795;50.796;3.860;2023-06-14T19:42:58;2.80;;;1.55;;
21270;SDS011;10795;50.796;3.860;2023-06-14T19:45:25;2.55;;;1.35;;
21270;SDS011;10795;50.796;3.860;2023-06-14T19:47:51;1.60;;;1.13;;
21270;SDS011;10795;50.796;3.860;2023-06-14T19:50:16;1.30;;;0.90;;
21270;SDS011;10795;50.796;3.860;2023-06-14T19:52:42;1.70;;;1.45;;
21270;SDS011;10795;50.796;3.860;2023-06-14T19:55:09;2.95;;;1.13;;
21270;SDS011;10795;50.796;3.860;2023-06-14T19:57:34;2.55;;;1.30;;
21270;SDS011;10795;50.796;3.860;2023-06-14T20:00:00;4.13;;;1.20;;
21270;SDS011;10795;50.796;3.860;2023-06-14T20:02:33;0.90;;;0.90;;
21270;SDS011;10795;50.796;3.860;2023-06-14T20:04:59;1.60;;;0.82;;
21270;SDS011;10795;50.796;3.860;2023-06-14T20:07:26;2.42;;;1.00;;
21270;SDS011;10795;50.796;3.860;2023-06-14T20:09:52;2.28;;;1.10;;
21270;SDS011;10795;50.796;3.860;2023-06-14T20:12:20;0.70;;;0.65;;
21270;SDS011;10795;50.796;3.860;2023-06-14T20:14:46;1.45;;;0.80;;
21270;SDS011;10795;50.796;3.860;2023-06-14T20:17:12;0.85;;;0.82;;
21270;SDS011;10795;50.796;3.860;2023-06-14T20:19:38;1.10;;;1.00;;
21270;SDS011;10795;50.796;3.860;2023-06-14T20:22:05;1.60;;;1.23;;
21270;SDS011;10795;50.796;3.860;2023-06-14T20:24:31;3.08;;;0.93;;
21270;SDS011;10795;50.796;3.860;2023-06-14T20:26:56;1.50;;;0.90;;
21270;SDS011;10795;50.796;3.860;2023-06-14T20:29:22;4.35;;;1.00;;
21270;SDS011;10795;50.796;3.860;2023-06-14T20:31:48;2.45;;;1.30;;
21270;SDS011;10795;50.796;3.860;2023-06-14T20:34:14;0.88;;;0.75;;
21270;SDS011;10795;50.796;3.860;2023-06-14T20:36:40;2.42;;;1.50;;
21270;SDS011;10795;50.796;3.860;2023-06-14T20:39:06;2.15;;;1.20;;
21270;SDS011;10795;50.796;3.860;2023-06-14T20:41:32;2.20;;;1.27;;
21270;SDS011;10795;50.796;3.860;2023-06-14T20:43:58;3.65;;;1.20;;
21270;SDS011;10795;50.796;3.860;2023-06-14T20:46:26;3.33;;;1.30;;
21270;SDS011;10795;50.796;3.860;2023-06-14T20:48:53;4.25;;;1.30;;
21270;SDS011;10795;50.796;3.860;2023-06-14T20:51:20;7.22;;;1.40;;
21270;SDS011;10795;50.796;3.860;2023-06-14T20:53:46;2.28;;;1.08;;
21270;SDS011;10795;50.796;3.860;2023-06-14T20:56:12;1.50;;;1.30;;
21270;SDS011;10795;50.796;3.860;2023-06-14T20:58:38;1.70;;;1.23;;
21270;SDS011;10795;50.796;3.860;2023-06-14T21:01:04;1.40;;;1.10;;
21270;SDS011;10795;50.796;3.860;2023-06-14T21:03:30;1.50;;;1.33;;
21270;SDS011;10795;50.796;3.860;2023-06-14T21:05:56;2.97;;;1.10;;
21270;SDS011;10795;50.796;3.860;2023-06-14T21:08:25;2.55;;;0.90;;
21270;SDS011;10795;50.796;3.860;2023-06-14T21:10:53;2.97;;;1.30;;
21270;SDS011;10795;50.796;3.860;2023-06-14T21:13:22;1.65;;;1.10;;
21270;SDS011;10795;50.796;3.860;2023-06-14T21:15:48;4.25;;;1.10;;
21270;SDS011;10795;50.796;3.860;2023-06-14T21:18:14;4.57;;;1.20;;
21270;SDS011;10795;50.796;3.860;2023-06-14T21:20:40;2.25;;;1.40;;
21270;SDS011;10795;50.796;3.860;2023-06-14T21:23:06;4.95;;;1.00;;
21270;SDS011;10795;50.796;3.860;2023-06-14T21:25:33;6.13;;;0.95;;
21270;SDS011;10795;50.796;3.860;2023-06-14T21:28:02;5.03;;;1.13;;
21270;SDS011;10795;50.796;3.860;2023-06-14T21:30:31;2.60;;;1.55;;
21270;SDS011;10795;50.796;3.860;2023-06-14T21:33:01;0.90;;;0.80;;
21270;SDS011;10795;50.796;3.860;2023-06-14T21:35:31;4.32;;;1.00;;
21270;SDS011;10795;50.796;3.860;2023-06-14T21:37:58;2.58;;;1.08;;
21270;SDS011;10795;50.796;3.860;2023-06-14T21:40:24;3.65;;;1.30;;
21270;SDS011;10795;50.796;3.860;2023-06-14T21:42:58;3.40;;;0.98;;
21270;SDS011;10795;50.796;3.860;2023-06-14T21:45:24;2.20;;;0.88;;
21270;SDS011;10795;50.796;3.860;2023-06-14T21:47:52;1.63;;;0.98;;
21270;SDS011;10795;50.796;3.860;2023-06-14T21:50:18;1.33;;;0.95;;
21270;SDS011;10795;50.796;3.860;2023-06-14T21:52:53;2.78;;;1.08;;
21270;SDS011;10795;50.796;3.860;2023-06-14T21:55:25;3.50;;;1.23;;
21270;SDS011;10795;50.796;3.860;2023-06-14T22:00:32;2.58;;;1.05;;